»·PEaware :: AMMO12 KEND-KEND

AMMO12 :: KEND-KEND

FLIGHT INFORMATION

Flight Status: Arrived
Operator: Unknown
More flights by this operator :: More flights under this callsign
Pilot: Lucas H. (22205)
Aircraft: BEECH AIRCRAFT T-6A TEXAN
(TEX2)
More flights by this aircraft type
Origin: KEND Vance AFB
United States
Destination: KEND Vance AFB
United States
More flights between these airports :: More routes between these airports
Route: +DF NL
File this flight plan on PilotEdge
Remarks:
Altitude:
(Current/Filed)
0ft
Speed:
(Current/Filed)
0kts
Departed: 18-Jul-19 09:04 AM
Arrived: 18-Jul-19 09:40 AM
Distance/Time
Traveled:
0nm/0:36
Distance/Time
To Go:
Arrived

Flight Plot

Page will automatically refresh every two minutes.


Map Options




Map Legend


Flown Route
Filed Route
Departure Airport
Arrival Airport
Navaid (VOR, NDB)
Fix

Horizontal Profiles

Position Reports

Time Latitude Longitude Heading Altitude Ground
Speed
18-Jul-19 08:21 36.346968 -97.909993 215 1279ft 0kts
18-Jul-19 08:30 36.337258 -97.908884 179 1292ft 0kts
18-Jul-19 08:31 36.337258 -97.908884 179 1292ft 0kts
18-Jul-19 08:32 36.337258 -97.908884 179 1292ft 0kts
18-Jul-19 08:33 36.337258 -97.908884 179 1292ft 0kts
18-Jul-19 08:34 36.337258 -97.908884 179 1292ft 0kts
18-Jul-19 08:37 36.336912 -97.908889 0 1292ft 0kts
18-Jul-19 08:45 36.337258 -97.908884 180 1292ft 0kts
18-Jul-19 08:46 36.337258 -97.908884 180 1292ft 0kts
18-Jul-19 08:47 36.337258 -97.908884 180 1292ft 0kts
18-Jul-19 08:48 36.337258 -97.908884 180 1292ft 0kts
18-Jul-19 08:49 36.337258 -97.908884 180 1292ft 0kts
18-Jul-19 08:50 36.337258 -97.908884 180 1292ft 0kts
18-Jul-19 08:51 36.337258 -97.908884 180 1292ft 0kts
18-Jul-19 08:52 36.337258 -97.908884 180 1292ft 0kts
18-Jul-19 08:53 36.337258 -97.908884 180 1292ft 0kts
18-Jul-19 08:54 36.337258 -97.908884 179 1292ft 0kts
18-Jul-19 08:55 36.337258 -97.908884 180 1292ft 0kts
18-Jul-19 08:56 36.337168 -97.908886 182 1292ft 0kts
18-Jul-19 08:57 36.335741 -97.909238 180 1293ft 19kts
18-Jul-19 08:58 36.334167 -97.909364 4 1292ft 4kts
18-Jul-19 08:59 36.336878 -97.909232 0 1292ft 18kts
18-Jul-19 09:00 36.347505 -97.909042 4 1278ft 31kts
18-Jul-19 09:01 36.354578 -97.911118 351 1275ft 32kts
18-Jul-19 09:02 36.355672 -97.913781 238 1274ft 3kts
18-Jul-19 09:03 36.349564 -97.914713 180 1309ft 106kts
18-Jul-19 09:04 36.300690 -97.909914 175 2635ft 199kts
18-Jul-19 09:05 36.246816 -97.897460 169 4985ft 212kts
18-Jul-19 09:06 36.254582 -97.846629 340 4907ft 242kts
18-Jul-19 09:07 36.316160 -97.880347 329 4971ft 246kts
18-Jul-19 09:08 36.378545 -97.914605 338 5041ft 244kts
18-Jul-19 09:09 36.447561 -97.910442 358 5027ft 251kts
18-Jul-19 09:10 36.517381 -97.904718 359 5077ft 248kts
18-Jul-19 09:12 36.587241 -97.900785 359 4962ft 253kts
18-Jul-19 09:13 36.656729 -97.894608 1 4968ft 253kts
18-Jul-19 09:14 36.725891 -97.894311 334 2312ft 252kts
18-Jul-19 09:15 36.738999 -97.967958 267 2346ft 210kts
18-Jul-19 09:16 36.750437 -98.033512 311 2280ft 208kts
18-Jul-19 09:17 36.795830 -98.074258 356 2161ft 213kts
18-Jul-19 09:18 36.817891 -98.111576 219 1826ft 148kts
18-Jul-19 09:19 36.784869 -98.121556 183 1864ft 128kts
18-Jul-19 09:20 36.753100 -98.122760 183 1516ft 103kts
18-Jul-19 09:21 36.724351 -98.123016 150 1438ft 160kts
18-Jul-19 09:22 36.758733 -98.110790 321 2009ft 128kts
18-Jul-19 09:23 36.739844 -98.123395 183 1199ft 81kts
18-Jul-19 09:24 36.714244 -98.100839 79 2957ft 191kts
18-Jul-19 09:25 36.725817 -98.033719 88 5795ft 197kts
18-Jul-19 09:26 36.722682 -97.965296 91 8128ft 239kts
18-Jul-19 09:27 36.721928 -97.907767 98 7831ft 247kts
18-Jul-19 09:28 36.737556 -97.886816 348 6875ft 175kts
18-Jul-19 09:29 36.735871 -97.906220 168 7654ft 161kts
18-Jul-19 09:30 36.729393 -97.854615 26 7746ft 187kts
18-Jul-19 09:30 36.699954 -97.865970 178 6552ft 258kts
18-Jul-19 09:31 36.628319 -97.845829 167 5863ft 261kts
18-Jul-19 09:33 36.552472 -97.834786 128 4450ft 230kts
18-Jul-19 09:33 36.512821 -97.834633 218 3035ft 218kts
18-Jul-19 09:34 36.475807 -97.883670 230 2136ft 168kts
18-Jul-19 09:36 36.429400 -97.910696 190 1824ft 146kts
18-Jul-19 09:36 36.400155 -97.914216 184 1849ft 117kts
18-Jul-19 09:37 36.369409 -97.914542 183 1683ft 98kts
18-Jul-19 09:38 36.346801 -97.914635 179 1279ft 55kts
18-Jul-19 09:40 36.336008 -97.914249 137 1288ft 0kts

Navigation Log

Ident Type
Flight plan parsing failed, navigation log unavailable